Time;durP1;ratioP1;P1;durP2;ratioP2;P2;SDS_P1;SDS_P2;PMS_P1;PMS_P2;Temp;Humidity;BMP_temperature;BMP_pressure;BME280_temperature;BME280_humidity;BME280_pressure;Samples;Min_cycle;Max_cycle;Signal;HPM_P1;HPM_P2
2023/12/19 00:00:29;;;;;;;1.50;1.30;;;;;;;13.61;52.34;98661.62;105255;1259;72379;-41
2023/12/19 00:02:56;;;;;;;1.50;1.40;;;;;;;13.61;52.39;98660.66;105390;1257;62127;-40
2023/12/19 00:05:24;;;;;;;1.30;1.20;;;;;;;13.60;52.27;98659.80;105386;1258;62151;-41
2023/12/19 00:07:51;;;;;;;2.00;1.30;;;;;;;13.60;52.38;98659.48;105167;1263;75458;-42
2023/12/19 00:10:19;;;;;;;1.80;1.50;;;;;;;13.60;52.22;98651.69;105432;1260;65009;-42
2023/12/19 00:12:46;;;;;;;1.40;1.30;;;;;;;13.59;52.25;98651.91;105225;1258;72599;-42
2023/12/19 00:15:14;;;;;;;1.40;1.30;;;;;;;13.59;52.26;98655.02;105260;1260;62051;-41
2023/12/19 00:17:43;;;;;;;1.60;1.30;;;;;;;13.59;52.21;98652.66;105330;1261;62055;-42
2023/12/19 00:20:11;;;;;;;1.40;1.10;;;;;;;13.59;52.33;98651.91;105495;1261;75422;-41
2023/12/19 00:22:38;;;;;;;1.30;1.20;;;;;;;13.59;52.29;98650.85;105314;1259;66313;-41
2023/12/19 00:25:06;;;;;;;1.60;1.20;;;;;;;13.59;52.32;98648.85;105268;1257;72628;-40
2023/12/19 00:27:34;;;;;;;1.70;1.30;;;;;;;13.58;52.26;98649.20;105348;1257;62049;-42
2023/12/19 00:30:01;;;;;;;1.40;1.30;;;;;;;13.58;52.29;98645.96;105411;1259;62108;-40
2023/12/19 00:32:28;;;;;;;1.50;1.30;;;;;;;13.58;52.23;98645.81;105521;1261;74194;-42
2023/12/19 00:34:56;;;;;;;1.90;1.50;;;;;;;13.58;52.33;98639.23;105419;1261;66154;-41
2023/12/19 00:37:23;;;;;;;1.20;1.10;;;;;;;13.58;52.33;98636.44;105221;1258;72603;-41
2023/12/19 00:39:51;;;;;;;1.70;1.50;;;;;;;13.58;52.32;98629.82;105518;1260;62036;-41
2023/12/19 00:42:18;;;;;;;1.80;1.40;;;;;;;13.58;52.24;98625.98;105588;1257;62139;-40
2023/12/19 00:44:45;;;;;;;1.20;1.10;;;;;;;13.58;52.37;98631.30;105304;1260;75136;-41
2023/12/19 00:47:13;;;;;;;1.40;1.30;;;;;;;13.58;52.23;98629.01;105361;1262;66144;-41
2023/12/19 00:49:40;;;;;;;1.50;1.40;;;;;;;13.58;52.36;98621.61;105415;1257;73142;-40
2023/12/19 00:52:07;;;;;;;1.80;1.40;;;;;;;13.59;52.31;98612.46;105465;1258;61969;-40
2023/12/19 00:54:35;;;;;;;1.70;1.40;;;;;;;13.58;52.34;98611.77;105196;1259;62168;-40
2023/12/19 00:57:03;;;;;;;1.60;1.40;;;;;;;13.58;52.37;98607.48;105368;1261;75506;-41
2023/12/19 00:59:30;;;;;;;1.80;1.50;;;;;;;13.59;52.46;98603.03;105339;1261;66151;-39
2023/12/19 01:01:57;;;;;;;1.30;1.20;;;;;;;13.58;52.38;98597.39;105260;1259;72632;-40
2023/12/19 01:04:25;;;;;;;1.80;1.30;;;;;;;13.59;52.44;98588.55;105338;1261;62040;-42
2023/12/19 01:06:52;;;;;;;1.50;1.40;;;;;;;13.59;52.35;98587.80;105247;1259;62140;-39
2023/12/19 01:09:20;;;;;;;1.20;1.10;;;;;;;13.59;52.30;98579.34;105357;1261;75400;-42
2023/12/19 01:11:47;;;;;;;1.30;1.20;;;;;;;13.59;52.35;98574.56;105181;1263;65385;-40
2023/12/19 01:14:14;;;;;;;1.80;1.30;;;;;;;13.59;52.29;98574.13;105302;1257;72566;-42
2023/12/19 01:16:42;;;;;;;1.60;1.30;;;;;;;13.59;52.36;98576.77;105242;1261;62079;-41
2023/12/19 01:19:09;;;;;;;1.50;1.30;;;;;;;13.59;52.34;98579.06;105485;1259;62183;-41
2023/12/19 01:21:38;;;;;;;1.90;1.40;;;;;;;13.59;52.29;98576.91;105288;1263;75508;-41
2023/12/19 01:24:05;;;;;;;1.90;1.40;;;;;;;13.59;52.37;98571.59;105219;1261;66333;-41
2023/12/19 01:26:32;;;;;;;1.70;1.20;;;;;;;13.59;52.45;98574.06;105339;1261;71712;-41
2023/12/19 01:29:01;;;;;;;1.50;1.40;;;;;;;13.60;52.27;98574.39;105341;1261;62059;-42
2023/12/19 01:31:28;;;;;;;1.50;1.30;;;;;;;13.60;52.34;98564.32;105389;1257;62049;-40
2023/12/19 01:33:57;;;;;;;1.50;1.30;;;;;;;13.60;52.27;98560.88;105355;1257;75373;-40
2023/12/19 01:36:25;;;;;;;1.80;1.30;;;;;;;13.59;52.23;98562.92;105418;1257;64732;-40
2023/12/19 01:38:53;;;;;;;1.80;1.50;;;;;;;13.59;52.24;98560.77;105262;1261;72810;-41
2023/12/19 01:41:22;;;;;;;1.40;1.30;;;;;;;13.60;52.31;98554.46;105166;1262;62143;-40
2023/12/19 01:43:49;;;;;;;2.10;1.50;;;;;;;13.59;52.37;98549.14;105336;1260;62068;-40
2023/12/19 01:46:17;;;;;;;1.40;1.30;;;;;;;13.59;52.24;98543.38;105368;1261;75094;-40
2023/12/19 01:48:45;;;;;;;1.30;1.20;;;;;;;13.59;52.33;98533.20;105510;1261;64910;-41
2023/12/19 01:51:13;;;;;;;1.30;1.20;;;;;;;13.60;52.32;98534.17;105326;1259;72716;-42
2023/12/19 01:53:41;;;;;;;1.70;1.40;;;;;;;13.60;52.25;98528.41;105338;1261;62400;-41
2023/12/19 01:56:08;;;;;;;1.50;1.10;;;;;;;13.59;52.23;98521.36;105472;1259;62036;-40
2023/12/19 01:58:36;;;;;;;1.30;1.20;;;;;;;13.59;52.23;98516.75;105427;1262;75267;-42
2023/12/19 02:01:04;;;;;;;1.40;1.30;;;;;;;13.59;52.29;98514.43;105510;1258;66076;-41
2023/12/19 02:03:32;;;;;;;1.50;1.30;;;;;;;13.59;52.31;98514.11;105397;1261;73178;-40
2023/12/19 02:06:00;;;;;;;1.80;1.30;;;;;;;13.58;52.36;98513.95;105435;1262;62132;-42
2023/12/19 02:08:28;;;;;;;1.80;1.50;;;;;;;13.58;52.25;98512.68;105204;1259;62135;-39
2023/12/19 02:10:55;;;;;;;1.40;1.20;;;;;;;13.58;52.28;98511.23;105326;1261;75365;-43
2023/12/19 02:13:23;;;;;;;1.70;1.50;;;;;;;13.58;52.32;98510.85;105289;1261;65428;-40
2023/12/19 02:15:51;;;;;;;1.90;1.40;;;;;;;13.57;52.30;98508.34;105329;1259;71392;-41
2023/12/19 02:18:21;;;;;;;1.80;1.30;;;;;;;13.57;52.21;98506.19;105238;1261;61959;-41
2023/12/19 02:20:49;;;;;;;1.50;1.20;;;;;;;13.57;52.24;98501.98;105582;1259;62247;-42
2023/12/19 02:23:16;;;;;;;1.40;1.30;;;;;;;13.57;52.37;98502.19;105444;1257;75256;-40
2023/12/19 02:25:43;;;;;;;1.70;1.50;;;;;;;13.57;52.30;98494.88;105623;1261;65112;-42
2023/12/19 02:28:11;;;;;;;1.30;1.10;;;;;;;13.58;52.37;98496.54;105446;1259;72340;-41
2023/12/19 02:30:38;;;;;;;1.90;1.30;;;;;;;13.57;52.36;98501.77;105674;1261;61972;-41
2023/12/19 02:33:10;;;;;;;1.60;1.30;;;;;;;13.58;52.32;98503.69;105327;1259;62077;-39
2023/12/19 02:35:37;;;;;;;1.30;1.20;;;;;;;13.58;52.28;98501.80;105526;1260;75339;-42
2023/12/19 02:38:04;;;;;;;1.90;1.40;;;;;;;13.58;52.29;98495.99;105469;1261;65962;-41
2023/12/19 02:40:32;;;;;;;2.20;1.30;;;;;;;13.58;52.26;98501.26;105316;1257;72307;-41
2023/12/19 02:43:01;;;;;;;1.20;1.10;;;;;;;13.58;52.29;98505.35;105390;1261;62043;-40
2023/12/19 02:45:33;;;;;;;2.20;1.50;;;;;;;13.58;52.28;98507.19;105261;1259;62041;-40
2023/12/19 02:48:01;;;;;;;1.60;1.30;;;;;;;13.59;52.15;98508.29;105495;1261;75107;-41
2023/12/19 02:50:29;;;;;;;1.30;1.20;;;;;;;13.59;52.35;98509.54;105554;1259;66287;-41
2023/12/19 02:52:56;;;;;;;1.40;1.30;;;;;;;13.59;52.25;98509.59;105248;1259;72459;-40
2023/12/19 02:55:23;;;;;;;1.50;1.40;;;;;;;13.59;52.31;98509.09;105574;1261;62242;-41
2023/12/19 02:57:51;;;;;;;1.30;1.20;;;;;;;13.59;52.28;98511.84;105238;1259;62130;-42
2023/12/19 03:00:18;;;;;;;1.30;1.20;;;;;;;13.60;52.30;98516.19;105359;1260;75397;-41
2023/12/19 03:02:46;;;;;;;1.40;1.30;;;;;;;13.60;52.28;98516.35;105342;1261;65884;-41
2023/12/19 03:05:13;;;;;;;1.40;1.30;;;;;;;13.60;52.33;98512.15;105539;1259;72452;-41
2023/12/19 03:07:41;;;;;;;1.70;1.50;;;;;;;13.61;52.31;98509.23;105360;1262;62052;-41
2023/12/19 03:10:09;;;;;;;1.50;1.30;;;;;;;13.61;52.41;98515.47;105304;1259;62058;-42
2023/12/19 03:12:36;;;;;;;2.00;1.40;;;;;;;13.61;52.38;98511.11;105465;1259;75353;-40
2023/12/19 03:15:05;;;;;;;1.70;1.20;;;;;;;13.61;52.27;98485.96;105378;1261;65499;-39
2023/12/19 03:17:33;;;;;;;1.30;1.20;;;;;;;13.62;52.33;98482.46;105390;1259;71297;-39
2023/12/19 03:20:00;;;;;;;1.70;1.30;;;;;;;13.62;52.29;98476.80;105407;1262;62048;-41
2023/12/19 03:22:28;;;;;;;1.30;1.20;;;;;;;13.63;52.18;98476.52;105332;1261;62069;-40
2023/12/19 03:24:56;;;;;;;1.40;1.30;;;;;;;13.62;52.30;98470.83;105506;1260;75512;-42
2023/12/19 03:27:23;;;;;;;1.50;1.40;;;;;;;13.63;52.39;98473.73;105516;1260;65311;-41
2023/12/19 03:29:51;;;;;;;1.80;1.30;;;;;;;13.64;52.30;98462.89;105465;1259;73042;-40
2023/12/19 03:32:19;;;;;;;1.60;1.30;;;;;;;13.63;52.31;98459.13;105364;1259;61937;-41
2023/12/19 03:34:46;;;;;;;1.50;1.20;;;;;;;13.63;52.33;98443.73;105166;1259;62084;-40
2023/12/19 03:37:13;;;;;;;1.50;1.30;;;;;;;13.64;52.16;98439.14;105534;1261;75402;-40
2023/12/19 03:39:41;;;;;;;1.80;1.20;;;;;;;13.64;52.28;98435.74;105236;1260;65817;-42
2023/12/19 03:42:08;;;;;;;1.70;1.40;;;;;;;13.63;52.40;98432.80;105344;1260;72725;-40
2023/12/19 03:44:42;;;;;;;1.10;1.00;;;;;;;13.63;52.42;98438.02;105319;1258;62136;-41
2023/12/19 03:47:13;;;;;;;1.50;1.40;;;;;;;13.63;52.26;98431.34;105428;1256;62160;-41
2023/12/19 03:49:40;;;;;;;1.50;1.20;;;;;;;13.63;52.35;98439.11;105549;1261;75385;-41
2023/12/19 03:52:08;;;;;;;1.90;1.30;;;;;;;13.63;52.24;98435.72;105372;1261;66354;-41
2023/12/19 03:54:36;;;;;;;1.70;1.50;;;;;;;13.63;52.26;98437.80;105400;1259;72534;-40
2023/12/19 03:57:04;;;;;;;1.40;1.10;;;;;;;13.63;52.31;98435.88;105356;1262;62715;-41
2023/12/19 03:59:31;;;;;;;1.70;1.40;;;;;;;13.63;52.25;98430.65;105228;1261;62157;-41
2023/12/19 04:01:59;;;;;;;1.50;1.30;;;;;;;13.63;52.29;98422.90;105365;1262;75466;-41
2023/12/19 04:04:27;;;;;;;1.70;1.40;;;;;;;13.63;52.34;98413.97;105307;1259;65296;-40
2023/12/19 04:06:54;;;;;;;2.00;1.40;;;;;;;13.63;52.19;98407.19;105444;1261;72666;-41
2023/12/19 04:09:22;;;;;;;1.90;1.10;;;;;;;13.63;52.20;98408.20;105363;1262;62057;-42
2023/12/19 04:11:49;;;;;;;1.30;1.20;;;;;;;13.64;52.29;98409.44;105222;1259;62603;-41
2023/12/19 04:14:18;;;;;;;1.80;1.50;;;;;;;13.63;52.16;98409.98;105269;1262;75474;-41
2023/12/19 04:16:45;;;;;;;1.40;1.30;;;;;;;13.64;52.28;98413.30;105378;1259;66258;-42
2023/12/19 04:19:12;;;;;;;1.40;1.20;;;;;;;13.63;52.30;98420.20;105443;1259;72627;-40
2023/12/19 04:21:41;;;;;;;1.60;1.20;;;;;;;13.63;52.24;98425.27;105615;1261;62059;-40
2023/12/19 04:24:09;;;;;;;1.60;1.30;;;;;;;13.64;52.18;98424.08;105218;1261;61959;-43
2023/12/19 04:26:37;;;;;;;1.70;1.50;;;;;;;13.63;52.28;98421.81;105456;1258;75371;-40
2023/12/19 04:29:04;;;;;;;1.80;1.50;;;;;;;13.63;52.30;98411.81;105460;1259;65573;-40
2023/12/19 04:31:31;;;;;;;1.40;1.30;;;;;;;13.63;52.30;98401.27;105415;1261;72474;-40
2023/12/19 04:34:00;;;;;;;1.50;1.40;;;;;;;13.63;52.21;98396.73;105363;1261;62098;-40
2023/12/19 04:36:30;;;;;;;1.50;1.30;;;;;;;13.63;52.30;98403.20;105324;1259;62054;-40
2023/12/19 04:38:58;;;;;;;1.70;1.40;;;;;;;13.63;52.21;98396.04;105300;1261;76348;-40
2023/12/19 04:41:25;;;;;;;1.40;1.30;;;;;;;13.63;52.20;98392.49;105462;1261;65373;-41
2023/12/19 04:43:52;;;;;;;1.50;1.20;;;;;;;13.63;52.30;98392.36;105369;1258;72419;-39
2023/12/19 04:46:20;;;;;;;1.40;1.30;;;;;;;13.63;52.18;98401.95;105317;1262;62477;-41
2023/12/19 04:48:47;;;;;;;1.70;1.40;;;;;;;13.63;52.14;98401.59;105472;1257;62154;-41
2023/12/19 04:51:24;;;;;;;3.20;1.30;;;;;;;13.64;52.24;98393.70;105395;1258;75108;-42
2023/12/19 04:53:53;;;;;;;1.90;1.30;;;;;;;13.63;52.23;98393.29;105418;1261;65761;-42
2023/12/19 04:56:20;;;;;;;1.60;1.40;;;;;;;13.63;52.20;98396.52;105485;1261;72644;-41
2023/12/19 04:58:48;;;;;;;1.60;1.40;;;;;;;13.63;52.12;98387.44;105300;1264;62057;-41
2023/12/19 05:01:16;;;;;;;1.30;1.20;;;;;;;13.64;52.15;98396.61;105526;1259;62024;-41
2023/12/19 05:03:44;;;;;;;1.50;1.40;;;;;;;13.63;52.24;98396.67;105458;1259;74043;-40
2023/12/19 05:06:17;;;;;;;1.20;1.10;;;;;;;13.63;52.10;98396.36;105594;1261;65706;-41
2023/12/19 05:08:45;;;;;;;1.60;1.50;;;;;;;13.63;52.20;98392.74;105055;1262;70186;-40
2023/12/19 05:11:13;;;;;;;1.40;1.30;;;;;;;13.64;52.21;98392.52;105358;1263;61994;-41
2023/12/19 05:13:40;;;;;;;1.20;1.10;;;;;;;13.64;52.20;98383.48;105582;1262;62167;-40
2023/12/19 05:16:12;;;;;;;1.60;1.50;;;;;;;13.63;52.21;98385.59;105253;1261;75373;-42
2023/12/19 05:18:41;;;;;;;1.70;1.50;;;;;;;13.63;52.10;98379.29;105458;1260;65030;-40
2023/12/19 05:21:09;;;;;;;1.40;1.30;;;;;;;13.63;52.18;98386.51;105577;1260;72720;-41
2023/12/19 05:23:37;;;;;;;2.10;1.30;;;;;;;13.63;52.20;98383.17;105297;1261;62163;-41
2023/12/19 05:26:05;;;;;;;1.90;1.30;;;;;;;13.63;52.20;98389.63;105384;1261;62165;-40
2023/12/19 05:28:34;;;;;;;1.50;1.40;;;;;;;13.63;52.25;98394.48;105374;1261;75445;-39
2023/12/19 05:31:02;;;;;;;1.40;1.20;;;;;;;13.63;52.23;98389.31;105461;1261;65436;-40
2023/12/19 05:33:29;;;;;;;1.50;1.40;;;;;;;13.63;52.15;98382.58;105215;1262;72616;-40
2023/12/19 05:35:57;;;;;;;1.50;1.30;;;;;;;13.63;52.24;98377.10;105485;1260;62089;-40
2023/12/19 05:38:24;;;;;;;1.70;1.50;;;;;;;13.63;52.19;98364.71;105218;1261;62131;-41
2023/12/19 05:40:56;;;;;;;1.40;1.30;;;;;;;13.63;52.15;98366.55;105383;1257;75144;-41
2023/12/19 05:43:24;;;;;;;1.90;1.40;;;;;;;13.62;52.16;98368.60;105448;1261;66136;-39
2023/12/19 05:45:52;;;;;;;1.50;1.40;;;;;;;13.63;52.12;98369.94;105317;1257;72591;-42
2023/12/19 05:48:20;;;;;;;1.90;1.50;;;;;;;13.62;52.22;98375.38;105353;1260;62059;-42
2023/12/19 05:50:49;;;;;;;1.60;1.30;;;;;;;13.63;52.04;98377.00;105361;1257;62066;-40
2023/12/19 05:53:16;;;;;;;1.30;1.20;;;;;;;13.62;52.14;98379.90;105127;1262;73733;-42
2023/12/19 05:55:46;;;;;;;1.80;1.60;;;;;;;13.63;52.31;98381.41;106091;1262;65123;-42
2023/12/19 05:58:13;;;;;;;2.00;1.70;;;;;;;13.64;52.49;98378.90;105412;1259;72377;-42
2023/12/19 06:00:41;;;;;;;2.50;2.00;;;;;;;13.67;52.78;98385.17;105538;1262;62041;-43
2023/12/19 06:03:09;;;;;;;2.30;1.90;;;;;;;13.70;53.01;98389.96;105779;1262;62523;-42
2023/12/19 06:05:39;;;;;;;2.10;1.90;;;;;;;13.75;53.00;98390.48;105762;1261;75521;-41
2023/12/19 06:08:07;;;;;;;4.20;2.00;;;;;;;13.77;52.96;98391.62;105286;1260;66219;-41
2023/12/19 06:10:35;;;;;;;4.20;2.20;;;;;;;13.78;53.00;98388.90;105803;1262;72305;-41
2023/12/19 06:13:02;;;;;;;3.50;2.00;;;;;;;13.80;52.99;98388.18;105453;1265;62060;-41
2023/12/19 06:15:30;;;;;;;2.40;1.80;;;;;;;13.82;53.01;98385.05;105778;1262;62167;-42
2023/12/19 06:17:57;;;;;;;2.80;2.20;;;;;;;13.83;52.99;98376.77;105393;1271;74377;-43
2023/12/19 06:20:25;;;;;;;3.40;2.00;;;;;;;13.83;52.98;98373.11;105252;1263;66027;-42
2023/12/19 06:22:52;;;;;;;2.10;1.90;;;;;;;13.84;53.00;98368.36;105341;1257;72317;-41
2023/12/19 06:25:20;;;;;;;2.40;1.90;;;;;;;13.84;53.05;98380.48;105271;1261;62178;-41
2023/12/19 06:27:47;;;;;;;2.60;2.00;;;;;;;13.85;52.94;98389.67;105495;1269;62855;-42
2023/12/19 06:30:15;;;;;;;2.30;1.90;;;;;;;13.85;52.92;98391.90;105285;1258;74423;-42
2023/12/19 06:32:55;;;;;;;3.20;1.90;;;;;;;13.84;52.95;98386.40;105275;1262;64781;-42
2023/12/19 06:35:23;;;;;;;2.10;1.90;;;;;;;13.84;52.99;98383.66;105782;1257;72529;-44
2023/12/19 06:37:51;;;;;;;3.70;2.10;;;;;;;13.83;53.05;98383.13;105337;1262;62078;-43
2023/12/19 06:40:18;;;;;;;2.40;2.00;;;;;;;13.84;53.02;98384.52;105439;1260;62100;-41
2023/12/19 06:42:47;;;;;;;6.40;2.30;;;;;;;13.83;52.94;98387.49;105307;1264;75436;-43
2023/12/19 06:45:16;;;;;;;2.80;1.90;;;;;;;13.84;53.02;98384.63;105285;1263;66019;-41
2023/12/19 06:47:45;;;;;;;2.60;2.00;;;;;;;13.84;53.05;98379.20;105296;1260;72627;-42
2023/12/19 06:50:12;;;;;;;3.00;2.10;;;;;;;13.85;52.97;98378.44;105211;1258;62585;-41
2023/12/19 06:52:40;;;;;;;2.80;2.30;;;;;;;13.84;53.12;98366.80;105569;1260;62076;-41
2023/12/19 06:55:14;;;;;;;3.00;2.00;;;;;;;13.84;53.08;98367.51;105308;1258;75845;-41
2023/12/19 06:57:42;;;;;;;2.50;1.90;;;;;;;13.85;53.14;98366.90;105073;1262;66245;-42
2023/12/19 07:00:10;;;;;;;2.20;1.60;;;;;;;13.85;53.09;98361.52;104998;1258;163254;-41
2023/12/19 07:02:37;;;;;;;2.50;2.00;;;;;;;13.86;53.20;98359.50;105285;1263;62572;-42
2023/12/19 07:05:05;;;;;;;3.20;2.10;;;;;;;13.86;53.33;98361.80;105312;1262;62098;-43
2023/12/19 07:07:33;;;;;;;2.70;2.10;;;;;;;13.87;53.33;98368.89;105577;1260;75257;-44
2023/12/19 07:10:01;;;;;;;2.40;2.10;;;;;;;13.88;53.52;98364.39;105185;1271;64939;-41
2023/12/19 07:12:30;;;;;;;3.40;2.10;;;;;;;13.88;53.58;98361.00;105533;1261;72690;-43
2023/12/19 07:14:57;;;;;;;2.60;1.90;;;;;;;13.89;53.66;98352.27;105297;1261;62042;-43
2023/12/19 07:17:25;;;;;;;2.40;2.20;;;;;;;13.89;53.62;98347.84;105387;1261;62164;-44
2023/12/19 07:19:54;;;;;;;2.00;1.80;;;;;;;13.89;53.56;98343.77;105136;1258;76225;-44
2023/12/19 07:22:22;;;;;;;2.90;2.30;;;;;;;13.89;53.68;98353.98;105240;1262;64898;-42
2023/12/19 07:24:49;;;;;;;2.60;1.90;;;;;;;13.90;53.49;98365.65;105362;1262;72349;-42
2023/12/19 07:27:17;;;;;;;1.80;1.70;;;;;;;13.89;53.54;98373.76;105173;1262;62056;-42
2023/12/19 07:29:45;;;;;;;2.70;2.20;;;;;;;13.90;53.49;98370.54;104990;1259;62502;-42
2023/12/19 07:32:14;;;;;;;2.60;1.80;;;;;;;13.90;53.54;98375.02;105060;1260;75435;-42
2023/12/19 07:34:47;;;;;;;3.50;2.30;;;;;;;13.91;53.58;98373.28;105006;1266;66575;-41
2023/12/19 07:37:47;;;;;;;1.80;1.70;;;;;;;13.91;53.35;98364.92;105020;1264;72811;-43
2023/12/19 07:40:18;;;;;;;2.80;1.80;;;;;;;13.91;53.26;98360.95;105514;1264;62019;-43
2023/12/19 07:42:48;;;;;;;2.60;2.00;;;;;;;13.92;53.43;98356.99;104910;1257;62456;-41
2023/12/19 07:45:17;;;;;;;1.80;1.60;;;;;;;13.93;53.39;98358.32;105122;1271;75733;-41
2023/12/19 07:47:45;;;;;;;1.80;1.70;;;;;;;13.93;53.33;98359.33;105189;1258;66638;-41
2023/12/19 07:50:12;;;;;;;2.40;1.80;;;;;;;13.93;53.33;98361.05;104994;1258;72706;-40
2023/12/19 07:52:40;;;;;;;9.00;2.00;;;;;;;13.95;53.47;98364.36;105197;1269;62130;-44
2023/12/19 07:55:10;;;;;;;6.30;2.50;;;;;;;13.96;53.66;98365.05;105048;1271;62748;-43
2023/12/19 07:57:38;;;;;;;8.40;2.30;;;;;;;13.97;53.93;98362.64;105129;1262;74030;-42
2023/12/19 08:00:08;;;;;;;6.70;1.90;;;;;;;13.99;54.05;98355.06;105197;1262;66323;-42
2023/12/19 08:02:42;;;;;;;5.00;2.10;;;;;;;14.00;54.21;98350.35;105016;1260;72120;-42
2023/12/19 08:05:12;;;;;;;3.60;2.00;;;;;;;14.03;54.36;98348.50;108928;1257;59930;-43
2023/12/19 08:07:40;;;;;;;4.70;2.10;;;;;;;14.06;54.41;98346.88;109009;1257;60044;-43
2023/12/19 08:10:07;;;;;;;4.80;2.10;;;;;;;14.08;54.49;98341.01;109034;1258;75388;-43
2023/12/19 08:12:35;;;;;;;5.90;2.10;;;;;;;14.10;54.43;98333.31;109040;1257;65279;-43
2023/12/19 08:15:02;;;;;;;5.00;1.90;;;;;;;14.12;54.48;98334.67;108999;1256;71384;-43
2023/12/19 08:17:30;;;;;;;7.00;2.60;;;;;;;14.14;54.26;98334.55;106512;1258;62099;-42
2023/12/19 08:19:57;;;;;;;5.70;2.60;;;;;;;14.16;54.17;98333.73;105481;1260;62039;-44
2023/12/19 08:22:25;;;;;;;3.10;2.20;;;;;;;14.17;53.91;98326.85;105317;1257;75444;-43
2023/12/19 08:24:52;;;;;;;4.00;2.50;;;;;;;14.17;53.74;98311.33;105273;1261;66298;-41
2023/12/19 08:27:23;;;;;;;3.50;2.20;;;;;;;14.17;53.77;98314.56;104947;1257;72457;-46
2023/12/19 08:29:51;;;;;;;6.10;2.40;;;;;;;14.18;53.60;98307.27;105342;1262;62052;-40
2023/12/19 08:32:18;;;;;;;3.30;2.60;;;;;;;14.18;53.75;98303.98;105092;1258;62123;-43
2023/12/19 08:34:45;;;;;;;5.70;2.80;;;;;;;14.19;53.90;98300.02;105211;1258;75466;-43
2023/12/19 08:37:13;;;;;;;6.10;2.70;;;;;;;14.20;53.89;98296.17;105208;1259;66032;-42
2023/12/19 08:39:40;;;;;;;6.80;2.80;;;;;;;14.21;53.86;98301.44;105257;1262;72575;-43
2023/12/19 08:42:08;;;;;;;8.20;3.30;;;;;;;14.21;53.81;98300.45;105203;1263;62060;-44
2023/12/19 08:44:35;;;;;;;9.70;3.20;;;;;;;14.21;53.81;98299.27;105228;1260;62086;-44
2023/12/19 08:47:03;;;;;;;6.20;3.00;;;;;;;14.21;53.84;98303.37;105409;1261;75476;-42
2023/12/19 08:49:30;;;;;;;7.00;2.90;;;;;;;14.21;53.92;98303.05;105348;1261;66301;-43
2023/12/19 08:51:58;;;;;;;5.20;3.10;;;;;;;14.21;53.95;98297.38;105436;1261;71712;-44
2023/12/19 08:54:26;;;;;;;6.30;3.60;;;;;;;14.21;53.94;98299.28;105572;1258;62160;-44
2023/12/19 08:56:54;;;;;;;5.00;3.00;;;;;;;14.21;53.77;98294.42;105416;1257;62068;-44
2023/12/19 08:59:21;;;;;;;5.10;3.00;;;;;;;14.20;53.72;98288.56;105393;1262;75808;-43
2023/12/19 09:01:48;;;;;;;7.90;3.10;;;;;;;14.20;53.68;98286.54;105135;1262;67250;-43
2023/12/19 09:04:17;;;;;;;4.60;3.10;;;;;;;14.20;53.70;98283.74;108026;1258;70741;-44
2023/12/19 09:06:45;;;;;;;5.60;3.20;;;;;;;14.19;53.68;98277.81;105104;1261;62176;-45
2023/12/19 09:09:12;;;;;;;6.80;3.10;;;;;;;14.19;53.76;98273.46;104943;1262;62318;-42
2023/12/19 09:11:40;;;;;;;10.10;3.30;;;;;;;14.18;53.82;98267.05;105274;1260;76326;-44
2023/12/19 09:14:11;;;;;;;6.70;3.20;;;;;;;14.18;53.75;98261.67;105348;1260;65861;-43
2023/12/19 09:16:38;;;;;;;8.70;3.30;;;;;;;14.18;53.59;98259.00;105134;1260;73339;-41
2023/12/19 09:19:06;;;;;;;7.10;2.80;;;;;;;14.18;53.83;98253.94;105059;1260;63093;-43
2023/12/19 09:21:34;;;;;;;5.10;3.00;;;;;;;14.18;53.85;98244.70;105226;1257;62029;-40
2023/12/19 09:24:01;;;;;;;7.60;3.30;;;;;;;14.19;53.95;98236.83;104914;1263;75550;-41
2023/12/19 09:26:31;;;;;;;6.20;2.80;;;;;;;14.19;54.12;98230.09;104934;1260;67226;-41
2023/12/19 09:28:59;;;;;;;6.30;3.30;;;;;;;14.21;54.42;98223.79;105224;1261;71180;-43
2023/12/19 09:31:26;;;;;;;4.40;2.90;;;;;;;14.22;54.51;98218.59;105242;1271;61923;-42
2023/12/19 09:33:54;;;;;;;6.60;2.90;;;;;;;14.23;54.54;98215.11;105701;1257;62031;-43
2023/12/19 09:36:24;;;;;;;4.00;2.90;;;;;;;14.24;54.54;98208.52;105000;1263;74401;-42
2023/12/19 09:38:51;;;;;;;3.50;2.30;;;;;;;14.24;54.50;98209.87;105251;1257;66294;-42
2023/12/19 09:41:19;;;;;;;5.90;2.70;;;;;;;14.25;54.60;98212.90;105379;1261;73413;-45
2023/12/19 09:43:46;;;;;;;6.20;3.00;;;;;;;14.26;54.75;98217.67;105297;1261;62076;-41
2023/12/19 09:46:14;;;;;;;8.40;2.70;;;;;;;14.28;54.75;98214.39;105503;1261;62172;-46
2023/12/19 09:48:42;;;;;;;3.90;2.50;;;;;;;14.31;54.82;98216.70;105038;1257;75668;-41
2023/12/19 09:51:14;;;;;;;4.20;2.80;;;;;;;14.33;55.04;98207.56;105036;1264;66216;-41
2023/12/19 09:53:41;;;;;;;6.90;2.60;;;;;;;14.33;54.84;98205.89;105102;1262;74007;-41
2023/12/19 09:56:09;;;;;;;5.50;2.70;;;;;;;14.33;54.67;98201.64;105129;1263;62062;-40
2023/12/19 09:58:37;;;;;;;5.90;3.20;;;;;;;14.32;54.54;98206.82;105005;1263;62170;-40
2023/12/19 10:01:04;;;;;;;3.60;2.60;;;;;;;14.32;54.43;98207.27;105105;1263;75539;-41
2023/12/19 10:03:32;;;;;;;6.20;2.80;;;;;;;14.31;54.43;98210.86;105559;1260;67131;-42
2023/12/19 10:06:00;;;;;;;5.90;3.00;;;;;;;14.30;54.32;98213.29;105309;1258;72680;-43
2023/12/19 10:08:28;;;;;;;4.30;2.80;;;;;;;14.30;54.33;98208.01;105323;1258;62392;-42
2023/12/19 10:10:56;;;;;;;4.30;2.90;;;;;;;14.29;54.15;98207.33;104973;1262;62162;-41
2023/12/19 10:13:33;;;;;;;5.10;2.50;;;;;;;14.28;53.99;98200.66;105070;1257;75045;-42
2023/12/19 10:16:08;;;;;;;6.60;2.60;;;;;;;14.27;54.07;98194.05;105247;1258;67420;-40
2023/12/19 10:18:59;;;;;;;4.40;2.80;;;;;;;14.27;54.19;98188.33;105168;1262;73683;-41
2023/12/19 10:21:28;;;;;;;5.10;2.70;;;;;;;14.28;54.43;98175.72;105290;1260;62061;-37
2023/12/19 10:24:11;;;;;;;4.00;2.70;;;;;;;14.29;54.64;98178.77;105320;1260;62048;-39
2023/12/19 10:26:40;;;;;;;3.60;2.50;;;;;;;14.30;54.76;98180.63;105505;1260;76417;-40
2023/12/19 10:29:07;;;;;;;5.00;2.70;;;;;;;14.30;54.86;98181.17;105254;1257;65679;-44
2023/12/19 10:31:35;;;;;;;4.80;2.80;;;;;;;14.31;55.18;98183.08;105393;1257;73187;-40
2023/12/19 10:34:04;;;;;;;3.70;2.50;;;;;;;14.32;55.24;98179.28;105133;1260;62043;-40
2023/12/19 10:36:33;;;;;;;4.60;2.60;;;;;;;14.34;55.24;98175.91;105500;1260;61967;-44
2023/12/19 10:39:01;;;;;;;6.40;2.60;;;;;;;14.35;55.31;98178.67;105547;1261;74039;-42
2023/12/19 10:41:29;;;;;;;5.40;2.50;;;;;;;14.37;55.33;98176.45;105662;1260;65538;-41
2023/12/19 10:43:58;;;;;;;4.00;2.70;;;;;;;14.38;55.44;98161.27;105158;1258;71477;-43
2023/12/19 10:46:29;;;;;;;5.60;3.00;;;;;;;14.40;55.20;98158.48;105376;1261;62106;-42
2023/12/19 10:49:01;;;;;;;5.80;2.50;;;;;;;14.41;55.02;98161.30;105321;1261;62066;-42
2023/12/19 10:51:32;;;;;;;4.10;2.80;;;;;;;14.40;55.00;98153.48;105247;1257;74266;-41
2023/12/19 10:54:10;;;;;;;4.60;2.70;;;;;;;14.40;55.01;98149.39;105342;1261;67449;-43
2023/12/19 10:56:45;;;;;;;4.90;3.00;;;;;;;14.40;55.14;98153.26;105194;1258;73390;-42
2023/12/19 10:59:19;;;;;;;5.70;2.80;;;;;;;14.41;55.10;98146.14;105047;1256;61952;-42
2023/12/19 11:01:46;;;;;;;6.60;2.80;;;;;;;14.41;55.12;98141.06;105169;1258;62082;-40
2023/12/19 11:04:21;;;;;;;4.20;2.80;;;;;;;14.42;55.00;98137.33;105209;1259;76505;-40
2023/12/19 11:06:56;;;;;;;5.80;2.60;;;;;;;14.42;55.00;98134.09;105037;1264;65644;-41
2023/12/19 11:09:26;;;;;;;4.20;2.70;;;;;;;14.42;54.92;98133.48;105490;1258;72664;-42
2023/12/19 11:11:54;;;;;;;5.00;2.50;;;;;;;14.42;54.81;98128.20;105806;1258;62085;-42
2023/12/19 11:14:24;;;;;;;3.30;2.50;;;;;;;14.42;54.84;98123.63;105105;1257;62113;-43
2023/12/19 11:16:59;;;;;;;4.60;2.50;;;;;;;14.42;54.79;98122.16;105589;1256;74391;-41
2023/12/19 11:19:38;;;;;;;5.80;2.50;;;;;;;14.42;54.84;98121.02;105288;1257;66052;-41
2023/12/19 11:22:25;;;;;;;4.80;2.50;;;;;;;14.43;55.09;98121.68;105117;1257;72672;-40
2023/12/19 11:25:15;;;;;;;3.80;2.50;;;;;;;14.45;55.15;98116.37;105226;1260;62167;-45
2023/12/19 11:27:55;;;;;;;4.60;2.50;;;;;;;14.48;55.20;98113.66;105100;1257;63838;-48
2023/12/19 11:30:36;;;;;;;6.40;2.60;;;;;;;14.51;55.47;98115.73;105244;1260;75354;-43